createdAt,value
2018-11-14T00:00:03.302Z,100042.09
2018-11-14T00:02:31.647Z,100037.83
2018-11-14T00:04:59.953Z,100046.42
2018-11-14T00:07:28.260Z,100049.87
2018-11-14T00:09:56.579Z,100053.20
2018-11-14T00:12:24.897Z,100055.09
2018-11-14T00:14:53.287Z,100061.44
2018-11-14T00:17:21.589Z,100068.08
2018-11-14T00:19:50.025Z,100066.66
2018-11-14T00:22:18.360Z,100062.23
2018-11-14T00:24:46.732Z,100062.17
2018-11-14T00:27:14.942Z,100061.23
2018-11-14T00:29:43.327Z,100064.35
2018-11-14T00:32:11.626Z,100067.60
2018-11-14T00:34:40.020Z,100072.56
2018-11-14T00:37:08.309Z,100073.86
2018-11-14T00:39:36.606Z,100074.92
2018-11-14T00:42:05.166Z,100065.20
2018-11-14T00:44:33.511Z,100074.03
2018-11-14T00:47:02.067Z,100076.90
2018-11-14T00:49:30.380Z,100085.45
2018-11-14T00:51:58.652Z,100084.95
2018-11-14T00:54:27.004Z,100069.70
2018-11-14T00:56:55.364Z,100059.95
2018-11-14T00:59:24.295Z,100076.59
2018-11-14T01:01:52.589Z,100070.61
2018-11-14T01:04:21.307Z,100079.92
2018-11-14T01:06:49.640Z,100086.27
2018-11-14T01:09:18.121Z,100081.61
2018-11-14T01:11:46.353Z,100083.34
2018-11-14T01:14:14.715Z,100075.58
2018-11-14T01:16:43.046Z,100067.30
2018-11-14T01:19:11.343Z,100073.61
2018-11-14T01:21:39.715Z,100073.33
2018-11-14T01:24:08.555Z,100075.61
2018-11-14T01:26:36.847Z,100071.91
2018-11-14T01:29:05.348Z,100069.27
2018-11-14T01:31:33.798Z,100061.84
2018-11-14T01:34:02.161Z,100061.27
2018-11-14T01:36:30.399Z,100070.86
2018-11-14T01:38:58.743Z,100073.00
2018-11-14T01:41:27.095Z,100079.31
2018-11-14T01:43:55.414Z,100078.48
2018-11-14T01:46:23.733Z,100078.79
2018-11-14T01:48:52.043Z,100076.41
2018-11-14T01:51:20.368Z,100075.92
2018-11-14T01:53:48.674Z,100071.47
2018-11-14T01:56:16.952Z,100072.44
2018-11-14T02:01:13.838Z,100073.57
2018-11-14T02:03:42.135Z,100082.57
2018-11-14T02:06:10.461Z,100077.44
2018-11-14T02:08:38.759Z,100071.97
2018-11-14T02:11:07.062Z,100075.47
2018-11-14T02:13:35.391Z,100074.95
2018-11-14T02:16:03.683Z,100077.47
2018-11-14T02:18:31.982Z,100081.42
2018-11-14T02:21:00.289Z,100081.11
2018-11-14T02:23:28.573Z,100085.27
2018-11-14T02:25:56.890Z,100087.45
2018-11-14T02:28:25.193Z,100083.52
2018-11-14T02:30:53.531Z,100078.49
2018-11-14T02:33:21.814Z,100072.62
2018-11-14T02:35:50.141Z,100078.33
2018-11-14T02:38:18.430Z,100064.92
2018-11-14T02:40:46.752Z,100074.77
2018-11-14T02:43:15.051Z,100070.19
2018-11-14T02:45:43.425Z,100063.89
2018-11-14T02:48:11.730Z,100061.14
2018-11-14T02:50:40.032Z,100059.14
2018-11-14T02:53:08.312Z,100059.81
2018-11-14T02:55:36.655Z,100060.05
2018-11-14T02:58:05.194Z,100057.45
2018-11-14T03:00:33.511Z,100056.33
2018-11-14T03:03:01.829Z,100054.53
2018-11-14T03:05:30.148Z,100055.64
2018-11-14T03:07:58.467Z,100063.91
2018-11-14T03:10:26.795Z,100070.59
2018-11-14T03:12:55.097Z,100067.27
2018-11-14T03:15:23.882Z,100071.17
2018-11-14T03:17:52.225Z,100078.07
2018-11-14T03:20:21.651Z,100072.59
2018-11-14T03:22:49.962Z,100072.95
2018-11-14T03:25:18.254Z,100077.83
2018-11-14T03:27:46.573Z,100072.52
2018-11-14T03:30:16.645Z,100068.88
2018-11-14T03:32:45.414Z,100062.47
2018-11-14T03:35:14.366Z,100075.27
2018-11-14T03:37:42.712Z,100082.59
2018-11-14T03:40:14.083Z,100091.90
2018-11-14T03:42:42.500Z,100088.39
2018-11-14T03:45:12.493Z,100087.92
2018-11-14T03:47:41.334Z,100088.47
2018-11-14T03:50:09.984Z,100084.63
2018-11-14T03:52:38.332Z,100085.57
2018-11-14T03:55:07.064Z,100083.59
2018-11-14T03:57:35.445Z,100082.91
2018-11-14T04:00:04.624Z,100083.61
2018-11-14T04:02:32.947Z,100084.54
2018-11-14T04:05:01.290Z,100082.98
2018-11-14T04:07:29.580Z,100081.37
2018-11-14T04:09:57.873Z,100074.42
2018-11-14T04:12:26.276Z,100064.66
2018-11-14T04:14:54.550Z,100070.98
2018-11-14T04:17:22.864Z,100074.59
2018-11-14T04:19:51.139Z,100065.60
2018-11-14T04:22:19.479Z,100070.03
2018-11-14T04:24:47.772Z,100074.95
2018-11-14T04:27:16.068Z,100076.97
2018-11-14T04:29:44.376Z,100079.59
2018-11-14T04:32:12.736Z,100078.92
2018-11-14T04:34:41.066Z,100066.16
2018-11-14T04:37:09.414Z,100062.56
2018-11-14T04:39:37.776Z,100060.56
2018-11-14T04:42:06.102Z,100065.22
2018-11-14T04:44:44.025Z,100057.42
2018-11-14T04:47:15.611Z,100066.01
2018-11-14T04:49:47.769Z,100060.56
2018-11-14T04:52:18.752Z,100056.25
2018-11-14T04:54:49.849Z,100063.02
2018-11-14T04:57:20.690Z,100053.94
2018-11-14T04:59:52.205Z,100052.68
2018-11-14T05:02:23.590Z,100054.14
2018-11-14T05:04:54.607Z,100058.98
2018-11-14T05:07:25.458Z,100063.09
2018-11-14T05:09:59.311Z,100064.17
2018-11-14T05:12:30.599Z,100067.02
2018-11-14T05:15:02.716Z,100060.92
2018-11-14T05:17:33.578Z,100056.33
2018-11-14T05:20:05.705Z,100048.30
2018-11-14T05:22:37.898Z,100046.80
2018-11-14T05:25:10.294Z,100047.91
2018-11-14T05:27:43.717Z,100054.06
2018-11-14T05:30:18.927Z,100054.14
2018-11-14T05:32:50.730Z,100045.91
2018-11-14T05:35:24.330Z,100047.45
2018-11-14T05:37:56.818Z,100058.30
2018-11-14T05:40:25.156Z,100061.49
2018-11-14T05:42:53.716Z,100070.41
2018-11-14T05:45:24.598Z,100075.88
2018-11-14T05:47:53.037Z,100064.56
2018-11-14T05:50:22.224Z,100069.62
2018-11-14T05:52:50.589Z,100065.69
2018-11-14T05:55:19.066Z,100049.97
2018-11-14T05:57:47.415Z,100043.27
2018-11-14T06:00:21.623Z,100046.50
2018-11-14T06:02:49.936Z,100057.34
2018-11-14T06:05:18.356Z,100053.38
2018-11-14T06:07:46.664Z,100049.86
2018-11-14T06:10:15.017Z,100049.94
2018-11-14T06:12:43.761Z,100056.95
2018-11-14T06:15:14.625Z,100067.37
2018-11-14T06:17:43.940Z,100076.52
2018-11-14T06:20:14.259Z,100074.50
2018-11-14T06:22:43.407Z,100080.33
2018-11-14T06:25:35.852Z,100080.80
2018-11-14T06:28:05.445Z,100087.97
2018-11-14T06:30:34.408Z,100098.70
2018-11-14T06:33:04.163Z,100096.05
2018-11-14T06:35:32.522Z,100089.07
2018-11-14T06:38:00.875Z,100091.13
2018-11-14T06:40:29.585Z,100083.59
2018-11-14T06:42:58.496Z,100078.05
2018-11-14T06:45:29.288Z,100080.70
2018-11-14T06:47:59.085Z,100088.29
2018-11-14T06:50:28.445Z,100077.55
2018-11-14T06:53:01.655Z,100073.64
2018-11-14T06:55:31.359Z,100081.33
2018-11-14T06:57:59.993Z,100086.57
2018-11-14T07:00:29.673Z,100085.00
2018-11-14T07:02:58.708Z,100090.30
2018-11-14T07:05:29.188Z,100101.94
2018-11-14T07:07:58.194Z,100094.91
2018-11-14T07:10:27.814Z,100102.86
2018-11-14T07:13:01.635Z,100112.14
2018-11-14T07:15:30.041Z,100108.26
2018-11-14T07:17:58.473Z,100104.64
2018-11-14T07:20:28.221Z,100108.15
2018-11-14T07:22:56.539Z,100117.81
2018-11-14T07:25:24.875Z,100115.80
2018-11-14T07:27:53.391Z,100114.39
2018-11-14T07:30:23.889Z,100110.57
2018-11-14T07:32:54.749Z,100111.50
2018-11-14T07:35:23.070Z,100112.30
2018-11-14T07:38:56.034Z,100116.08
2018-11-14T07:41:26.918Z,100116.55
2018-11-14T07:43:55.503Z,100117.19
2018-11-14T07:46:24.693Z,100112.99
2018-11-14T07:48:53.024Z,100106.80
2018-11-14T07:51:21.538Z,100108.41
2018-11-14T07:53:49.936Z,100114.09
2018-11-14T07:56:18.292Z,100114.94
2018-11-14T07:58:46.619Z,100113.07
2018-11-14T08:01:15.131Z,100108.30
2018-11-14T08:03:43.756Z,100110.08
2018-11-14T08:06:12.071Z,100109.85
2018-11-14T08:08:40.418Z,100105.05
2018-11-14T08:11:09.183Z,100107.27
2018-11-14T08:13:39.091Z,100093.44
2018-11-14T08:16:07.407Z,100090.67
2018-11-14T08:18:35.787Z,100089.44
2018-11-14T08:21:04.541Z,100088.77
2018-11-14T08:23:32.886Z,100088.86
2018-11-14T08:26:01.165Z,100092.28
2018-11-14T08:28:29.505Z,100098.58
2018-11-14T08:30:57.837Z,100098.65
2018-11-14T08:33:26.224Z,100093.14
2018-11-14T08:35:54.577Z,100093.61
2018-11-14T08:38:22.903Z,100100.65
2018-11-14T08:40:51.262Z,100102.83
2018-11-14T08:43:19.697Z,100107.42
2018-11-14T08:45:48.028Z,100119.48
2018-11-14T08:48:16.380Z,100120.81
2018-11-14T08:50:44.698Z,100118.25
2018-11-14T08:53:12.999Z,100123.84
2018-11-14T08:55:41.351Z,100116.72
2018-11-14T08:58:11.178Z,100124.08
2018-11-14T09:00:39.508Z,100124.17
2018-11-14T09:03:09.331Z,100125.78
2018-11-14T09:05:37.665Z,100120.94
2018-11-14T09:08:06.039Z,100115.13
2018-11-14T09:10:34.573Z,100108.69
2018-11-14T09:13:02.973Z,100107.34
2018-11-14T09:15:31.276Z,100115.51
2018-11-14T09:17:59.744Z,100113.03
2018-11-14T09:20:28.904Z,100114.54
2018-11-14T09:22:57.187Z,100104.26
2018-11-14T09:25:29.345Z,100106.45
2018-11-14T09:27:58.140Z,100112.81
2018-11-14T09:30:26.977Z,100112.43
2018-11-14T09:32:55.699Z,100115.95
2018-11-14T09:35:24.941Z,100116.70
2018-11-14T09:37:54.286Z,100109.16
2018-11-14T09:40:24.086Z,100122.28
2018-11-14T09:42:52.418Z,100119.52
2018-11-14T09:45:21.929Z,100122.75
2018-11-14T09:47:50.246Z,100125.86
2018-11-14T09:50:20.879Z,100117.45
2018-11-14T09:52:52.669Z,100118.69
2018-11-14T09:55:21.045Z,100110.03
2018-11-14T09:57:49.387Z,100106.41
2018-11-14T10:00:19.979Z,100116.55
2018-11-14T10:02:49.761Z,100117.45
2018-11-14T10:05:19.531Z,100121.55
2018-11-14T10:07:47.975Z,100124.17
2018-11-14T10:10:17.662Z,100125.29
2018-11-14T10:12:45.965Z,100127.73
2018-11-14T10:15:15.593Z,100126.99
2018-11-14T10:17:44.806Z,100124.70
2018-11-14T10:20:14.208Z,100121.87
2018-11-14T10:22:43.047Z,100119.70
2018-11-14T10:25:12.139Z,100120.00
2018-11-14T10:27:41.295Z,100109.48
2018-11-14T10:30:14.101Z,100114.19
2018-11-14T10:32:43.238Z,100112.91
2018-11-14T10:35:11.919Z,100107.52
2018-11-14T10:37:40.449Z,100116.08
2018-11-14T10:40:12.678Z,100108.95
2018-11-14T10:42:41.581Z,100108.73
2018-11-14T10:45:11.359Z,100105.03
2018-11-14T10:47:39.722Z,100086.97
2018-11-14T10:50:13.259Z,100092.44
2018-11-14T10:52:41.595Z,100088.84
2018-11-14T10:55:11.044Z,100093.66
2018-11-14T10:57:39.691Z,100079.47
2018-11-14T11:01:17.419Z,100088.70
2018-11-14T11:03:51.191Z,100090.63
2018-11-14T11:06:34.854Z,100084.96
2018-11-14T11:09:09.910Z,100080.16
2018-11-14T11:11:43.698Z,100078.23
2018-11-14T11:14:17.232Z,100075.64
2018-11-14T11:16:50.923Z,100081.17
2018-11-14T11:19:21.423Z,100077.39
2018-11-14T11:21:49.896Z,100084.25
2018-11-14T11:24:19.512Z,100078.09
2018-11-14T11:26:47.858Z,100086.29
2018-11-14T11:29:16.244Z,100083.63
2018-11-14T11:31:44.603Z,100089.19
2018-11-14T11:34:13.327Z,100085.52
2018-11-14T11:36:41.880Z,100092.19
2018-11-14T11:39:14.607Z,100085.03
2018-11-14T11:41:43.570Z,100092.60
2018-11-14T11:44:12.016Z,100094.71
2018-11-14T11:46:41.310Z,100088.92
2018-11-14T11:49:10.054Z,100083.06
2018-11-14T11:51:38.447Z,100077.13
2018-11-14T11:54:07.374Z,100073.90
2018-11-14T11:56:36.067Z,100070.64
2018-11-14T11:59:04.819Z,100070.27
2018-11-14T12:01:33.146Z,100066.08
2018-11-14T12:04:01.502Z,100062.36
2018-11-14T12:06:29.848Z,100056.66
2018-11-14T12:08:58.288Z,100056.54
2018-11-14T12:11:26.592Z,100058.92
2018-11-14T12:13:55.091Z,100066.19
2018-11-14T12:16:23.554Z,100051.91
2018-11-14T12:18:51.920Z,100049.77
2018-11-14T12:21:20.226Z,100052.84
2018-11-14T12:23:48.583Z,100047.30
2018-11-14T12:26:16.940Z,100042.89
2018-11-14T12:28:45.373Z,100033.50
2018-11-14T12:31:13.874Z,100032.08
2018-11-14T12:33:42.177Z,100027.11
2018-11-14T12:36:10.512Z,100020.43
2018-11-14T12:38:38.904Z,100018.72
2018-11-14T12:41:07.264Z,100009.69
2018-11-14T12:43:35.654Z,100012.63
2018-11-14T12:46:04.304Z,100010.01
2018-11-14T12:48:32.664Z,100011.25
2018-11-14T12:51:01.132Z,100001.06
2018-11-14T12:53:29.403Z,99998.87
2018-11-14T12:55:57.827Z,100008.04
2018-11-14T12:58:26.176Z,100013.45
2018-11-14T13:00:54.558Z,100006.89
2018-11-14T13:03:22.835Z,99996.17
2018-11-14T13:05:51.188Z,99991.80
2018-11-14T13:08:19.507Z,99994.29
2018-11-14T13:10:47.806Z,100003.88
2018-11-14T13:13:16.096Z,99998.03
2018-11-14T13:15:44.478Z,100002.52
2018-11-14T13:18:15.656Z,100011.18
2018-11-14T13:20:43.931Z,100016.13
2018-11-14T13:23:12.300Z,100021.36
2018-11-14T13:25:40.615Z,100018.67
2018-11-14T13:28:09.092Z,100021.45
2018-11-14T13:30:37.651Z,100026.45
2018-11-14T13:33:06.342Z,100020.77
2018-11-14T13:35:34.858Z,100023.11
2018-11-14T13:38:03.243Z,100025.52
2018-11-14T13:40:31.659Z,100027.91
2018-11-14T13:43:00.338Z,100026.69
2018-11-14T13:45:28.684Z,100033.79
2018-11-14T13:47:57.079Z,100037.73
2018-11-14T13:50:25.470Z,100034.88
2018-11-14T13:52:53.773Z,100036.33
2018-11-14T13:55:22.162Z,100040.52
2018-11-14T13:57:51.687Z,100031.88
2018-11-14T14:00:21.266Z,100032.48
2018-11-14T14:02:50.512Z,100031.41
2018-11-14T14:05:20.104Z,100025.44
2018-11-14T14:07:48.566Z,100026.99
2018-11-14T14:10:17.614Z,100032.26
2018-11-14T14:12:47.296Z,100029.07
2018-11-14T14:15:21.241Z,100023.95
2018-11-14T14:17:50.088Z,100030.41
2018-11-14T14:20:19.038Z,100023.34
2018-11-14T14:22:47.559Z,100019.30
2018-11-14T14:25:17.135Z,100012.88
2018-11-14T14:27:45.494Z,100017.31
2018-11-14T14:30:16.134Z,100024.22
2018-11-14T14:32:45.112Z,100026.67
2018-11-14T14:35:14.517Z,100027.84
2018-11-14T14:37:42.884Z,100031.70
2018-11-14T14:40:14.321Z,100034.31
2018-11-14T14:42:42.759Z,100032.41
2018-11-14T14:45:12.417Z,100028.60
2018-11-14T14:47:40.822Z,100037.94
2018-11-14T14:50:11.284Z,100038.73
2018-11-14T14:52:40.435Z,100038.74
2018-11-14T14:55:10.995Z,100029.77
2018-11-14T14:57:39.435Z,100034.72
2018-11-14T15:00:14.080Z,100035.57
2018-11-14T15:02:43.039Z,100035.44
2018-11-14T15:05:12.368Z,100030.48
2018-11-14T15:07:40.867Z,100031.06
2018-11-14T15:10:12.090Z,100030.13
2018-11-14T15:12:40.670Z,100037.09
2018-11-14T15:15:09.086Z,100032.59
2018-11-14T15:17:37.658Z,100034.31
2018-11-14T15:20:09.496Z,100031.66
2018-11-14T15:22:38.189Z,100032.69
2018-11-14T15:25:08.381Z,100030.32
2018-11-14T15:27:38.071Z,100022.53
2018-11-14T15:30:08.739Z,100022.16
2018-11-14T15:32:37.498Z,100017.30
2018-11-14T15:35:07.337Z,100022.16
2018-11-14T15:37:36.146Z,100022.52
2018-11-14T15:40:05.619Z,100021.53
2018-11-14T15:42:35.657Z,100016.88
2018-11-14T15:45:04.250Z,100020.02
2018-11-14T15:47:33.452Z,100017.80
2018-11-14T15:50:02.015Z,100013.23
2018-11-14T15:52:30.356Z,100013.95
2018-11-14T15:54:58.716Z,100013.66
2018-11-14T15:57:27.027Z,100012.81
2018-11-14T15:59:55.502Z,100006.34
2018-11-14T16:02:23.880Z,100019.03
2018-11-14T16:04:52.221Z,100016.75
2018-11-14T16:07:20.704Z,100016.75
2018-11-14T16:09:49.157Z,100028.48
2018-11-14T16:12:17.665Z,100021.10
2018-11-14T16:14:46.101Z,100023.48
2018-11-14T16:17:14.501Z,100031.05
2018-11-14T16:19:43.020Z,100031.44
2018-11-14T16:22:11.337Z,100027.64
2018-11-14T16:24:39.756Z,100037.27
2018-11-14T16:27:08.026Z,100032.59
2018-11-14T16:29:36.368Z,100038.95
2018-11-14T16:32:04.716Z,100043.34
2018-11-14T16:34:33.115Z,100036.66
2018-11-14T16:37:01.387Z,100031.25
2018-11-14T16:39:29.724Z,100036.87
2018-11-14T16:41:58.082Z,100036.20
2018-11-14T16:44:33.651Z,100035.61
2018-11-14T16:47:02.208Z,100046.82
2018-11-14T16:49:30.644Z,100041.98
2018-11-14T16:51:58.955Z,100040.31
2018-11-14T16:54:27.264Z,100033.68
2018-11-14T16:56:55.804Z,100030.61
2018-11-14T16:59:24.392Z,100033.27
2018-11-14T17:01:52.673Z,100034.80
2018-11-14T17:04:21.091Z,100034.88
2018-11-14T17:06:49.700Z,100029.27
2018-11-14T17:09:18.056Z,100026.53
2018-11-14T17:11:46.437Z,100021.48
2018-11-14T17:14:14.925Z,100020.48
2018-11-14T17:16:43.221Z,100014.14
2018-11-14T17:19:11.646Z,100009.66
2018-11-14T17:21:40.134Z,100007.03
2018-11-14T17:24:08.611Z,100004.00
2018-11-14T17:26:37.193Z,99999.68
2018-11-14T17:29:05.650Z,99994.86
2018-11-14T17:31:34.036Z,99991.01
2018-11-14T17:34:02.422Z,99983.84
2018-11-14T17:36:30.774Z,99984.46
2018-11-14T17:38:59.167Z,99981.31
2018-11-14T17:41:27.761Z,99983.11
2018-11-14T17:43:56.163Z,99975.12
2018-11-14T17:46:25.038Z,99970.87
2018-11-14T17:48:54.020Z,99968.88
2018-11-14T17:51:22.338Z,99970.06
2018-11-14T17:53:50.742Z,99966.05
2018-11-14T17:56:19.151Z,99972.97
2018-11-14T17:58:47.455Z,99971.09
2018-11-14T18:01:20.788Z,99979.33
2018-11-14T18:03:49.250Z,99982.53
2018-11-14T18:06:17.941Z,99988.46
2018-11-14T18:08:46.593Z,99986.16
2018-11-14T18:11:17.116Z,99994.86
2018-11-14T18:13:47.698Z,100009.48
2018-11-14T18:16:16.589Z,100005.69
2018-11-14T18:18:45.263Z,100005.76
2018-11-14T18:21:13.677Z,100004.16
2018-11-14T18:23:42.007Z,100005.57
2018-11-14T18:26:10.495Z,100012.53
2018-11-14T18:28:39.046Z,100009.11
2018-11-14T18:31:07.511Z,100012.53
2018-11-14T18:33:35.972Z,100014.77
2018-11-14T18:36:04.980Z,100019.33
2018-11-14T18:38:35.235Z,100012.59
2018-11-14T18:41:05.837Z,100013.02
2018-11-14T18:43:34.931Z,100017.99
2018-11-14T18:46:03.343Z,100022.27
2018-11-14T18:48:31.730Z,100021.91
2018-11-14T18:51:00.089Z,100026.66
2018-11-14T18:53:28.600Z,100018.48
2018-11-14T18:55:56.967Z,100018.32
2018-11-14T18:58:25.503Z,100021.75
2018-11-14T19:00:53.971Z,100017.89
2018-11-14T19:03:22.581Z,100019.05
2018-11-14T19:05:51.003Z,100022.48
2018-11-14T19:08:19.480Z,100023.21
2018-11-14T19:10:48.438Z,100024.02
2018-11-14T19:13:16.870Z,100022.42
2018-11-14T19:15:45.208Z,100017.92
2018-11-14T19:18:13.765Z,100016.03
2018-11-14T19:20:42.362Z,100021.72
2018-11-14T19:23:11.199Z,100021.27
2018-11-14T19:25:39.531Z,100024.63
2018-11-14T19:28:08.508Z,100025.41
2018-11-14T19:30:38.025Z,100021.98
2018-11-14T19:33:06.341Z,100029.67
2018-11-14T19:35:34.885Z,100023.13
2018-11-14T19:38:03.500Z,100026.25
2018-11-14T19:40:34.354Z,100018.36
2018-11-14T19:43:03.860Z,100021.34
2018-11-14T19:45:33.839Z,100022.28
2018-11-14T19:48:03.087Z,100021.47
2018-11-14T19:50:34.202Z,100014.41
2018-11-14T19:53:04.036Z,100018.25
2018-11-14T19:55:33.195Z,100017.81
2018-11-14T19:58:03.092Z,100018.06
2018-11-14T20:00:33.264Z,100021.66
2018-11-14T20:03:01.607Z,100022.44
2018-11-14T20:05:30.233Z,100025.92
2018-11-14T20:07:59.067Z,100023.59
2018-11-14T20:10:30.575Z,100022.27
2018-11-14T20:12:59.248Z,100017.33
2018-11-14T20:15:29.106Z,100018.00
2018-11-14T20:17:57.436Z,100015.75
2018-11-14T20:20:27.360Z,100013.30
2018-11-14T20:22:55.975Z,100012.84
2018-11-14T20:25:24.322Z,100012.65
2018-11-14T20:27:53.349Z,100011.13
2018-11-14T20:30:23.777Z,100010.83
2018-11-14T20:32:53.046Z,100011.15
2018-11-14T20:35:22.486Z,100015.29
2018-11-14T20:37:50.800Z,100013.25
2018-11-14T20:40:20.371Z,100010.73
2018-11-14T20:42:49.796Z,100006.41
2018-11-14T20:45:20.961Z,100004.16
2018-11-14T20:47:49.303Z,100003.84
2018-11-14T20:50:21.107Z,100005.70
2018-11-14T20:52:52.891Z,100007.51
2018-11-14T20:55:21.214Z,100003.05
2018-11-14T20:57:49.623Z,100006.81
2018-11-14T21:00:24.249Z,100014.51
2018-11-14T21:02:52.842Z,100016.13
2018-11-14T21:05:21.336Z,100023.81
2018-11-14T21:07:49.719Z,100024.50
2018-11-14T21:10:19.419Z,100011.93
2018-11-14T21:12:48.439Z,100012.39
2018-11-14T21:15:19.079Z,100005.03
2018-11-14T21:17:47.953Z,100004.38
2018-11-14T21:20:16.267Z,100005.84
2018-11-14T21:22:44.742Z,100007.19
2018-11-14T21:25:16.344Z,100000.90
2018-11-14T21:27:45.740Z,99996.00
2018-11-14T21:30:17.293Z,99998.16
2018-11-14T21:32:46.293Z,99996.77
2018-11-14T21:35:18.067Z,99992.82
2018-11-14T21:37:47.655Z,99990.47
2018-11-14T21:40:16.026Z,99989.09
2018-11-14T21:42:45.208Z,99989.52
2018-11-14T21:45:15.650Z,99995.69
2018-11-14T21:47:49.484Z,100005.41
2018-11-14T21:50:19.642Z,100001.94
2018-11-14T21:52:48.366Z,100003.53
2018-11-14T21:55:17.172Z,99998.51
2018-11-14T21:57:45.498Z,99994.06
2018-11-14T22:00:16.092Z,99992.59
2018-11-14T22:02:45.861Z,99987.81
2018-11-14T22:05:14.839Z,99978.50
2018-11-14T22:07:43.114Z,99971.93
2018-11-14T22:10:15.618Z,99967.82
2018-11-14T22:12:44.477Z,99965.52
2018-11-14T22:15:13.499Z,99963.73
2018-11-14T22:17:41.970Z,99960.02
2018-11-14T22:20:12.671Z,99956.59
2018-11-14T22:22:41.880Z,99958.00
2018-11-14T22:25:10.958Z,99960.86
2018-11-14T22:27:39.367Z,99958.80
2018-11-14T22:30:10.779Z,99969.87
2018-11-14T22:32:39.132Z,99963.68
2018-11-14T22:35:08.824Z,99961.92
2018-11-14T22:37:37.269Z,99957.79
2018-11-14T22:40:06.463Z,99960.78
2018-11-14T22:42:34.956Z,99959.40
2018-11-14T22:45:03.322Z,99958.59
2018-11-14T22:47:31.612Z,99952.14
2018-11-14T22:49:59.912Z,99955.27
2018-11-14T22:52:28.204Z,99952.57
2018-11-14T22:54:56.763Z,99955.39
2018-11-14T22:57:25.334Z,99953.34
2018-11-14T22:59:53.903Z,99954.24
2018-11-14T23:02:22.371Z,99956.67
2018-11-14T23:04:50.722Z,99951.28
2018-11-14T23:07:18.990Z,99956.30
2018-11-14T23:09:47.338Z,99960.09
2018-11-14T23:12:15.550Z,99954.20
2018-11-14T23:14:43.879Z,99945.73
2018-11-14T23:17:12.462Z,99946.59
2018-11-14T23:19:40.809Z,99948.22
2018-11-14T23:22:09.121Z,99952.31
2018-11-14T23:24:37.442Z,99948.89
2018-11-14T23:27:06.099Z,99949.53
2018-11-14T23:29:34.438Z,99949.97
2018-11-14T23:32:02.739Z,99950.05
2018-11-14T23:34:31.038Z,99949.33
2018-11-14T23:36:59.392Z,99945.09
2018-11-14T23:39:27.784Z,99940.77
2018-11-14T23:41:56.087Z,99945.27
2018-11-14T23:44:24.398Z,99944.11
2018-11-14T23:46:52.729Z,99937.91
2018-11-14T23:49:21.185Z,99938.47
2018-11-14T23:51:49.676Z,99933.46
2018-11-14T23:54:17.970Z,99935.66
2018-11-14T23:56:46.288Z,99940.66
2018-11-14T23:59:14.604Z,99942.19
